Time;durP1;ratioP1;P1;durP2;ratioP2;P2;SDS_P1;SDS_P2;PMS_P1;PMS_P2;Temp;Humidity;BMP_temperature;BMP_pressure;BME280_temperature;BME280_humidity;BME280_pressure;Samples;Min_cycle;Max_cycle;Signal;HPM_P1;HPM_P2
2023/08/03 00:00:02;;;;;;;7.03;6.00;;;;;;;22.96;63.90;98772.06;6109343;23;20040;-86
2023/08/03 00:02:28;;;;;;;7.53;6.68;;;;;;;22.90;64.24;98770.78;6108941;23;20004;-87
2023/08/03 00:04:53;;;;;;;8.43;6.60;;;;;;;22.91;64.09;98764.94;6109809;23;20408;-87
2023/08/03 00:07:19;;;;;;;10.02;6.57;;;;;;;22.87;64.25;98753.09;6108554;23;20012;-86
2023/08/03 00:09:47;;;;;;;7.93;6.65;;;;;;;22.85;64.58;98765.59;6108837;23;20005;-86
2023/08/03 00:12:13;;;;;;;7.85;6.63;;;;;;;22.80;64.39;98752.97;6109459;23;20012;-86
2023/08/03 00:14:38;;;;;;;7.80;6.20;;;;;;;22.80;64.23;98755.69;6108826;23;19992;-87
2023/08/03 00:17:04;;;;;;;8.15;6.55;;;;;;;22.76;64.62;98761.13;6158317;23;19997;-87
2023/08/03 00:19:30;;;;;;;7.90;5.97;;;;;;;22.65;64.70;98743.69;6132526;23;20012;-87
2023/08/03 00:21:55;;;;;;;7.60;6.65;;;;;;;22.68;64.75;98756.69;6108891;22;20008;-85
2023/08/03 00:24:21;;;;;;;8.45;6.88;;;;;;;22.65;65.21;98753.88;6133530;23;20001;-86
2023/08/03 00:26:46;;;;;;;8.50;6.50;;;;;;;22.65;64.80;98762.09;6108468;23;20016;-86
2023/08/03 00:29:12;;;;;;;8.18;6.22;;;;;;;22.56;65.70;98754.91;6108506;23;20345;-86
2023/08/03 00:31:37;;;;;;;9.20;6.47;;;;;;;22.57;65.66;98764.69;6156716;23;20336;-87
2023/08/03 00:34:03;;;;;;;13.30;7.20;;;;;;;22.55;65.25;98769.75;6109460;23;20005;-86
2023/08/03 00:36:28;;;;;;;11.32;6.75;;;;;;;22.54;65.55;98762.69;6108424;23;20040;-86
2023/08/03 00:38:54;;;;;;;10.10;6.40;;;;;;;22.47;65.82;98756.28;6109001;23;20065;-86
2023/08/03 00:41:19;;;;;;;7.05;6.03;;;;;;;22.42;65.85;98767.56;6133647;23;19985;-86
2023/08/03 00:43:45;;;;;;;7.65;6.18;;;;;;;22.43;66.01;98766.38;6108837;23;20001;-86
2023/08/03 00:46:11;;;;;;;9.70;6.28;;;;;;;22.42;65.91;98768.34;6132807;23;20354;-87
2023/08/03 00:48:36;;;;;;;11.90;6.93;;;;;;;22.26;66.62;98751.97;6108840;23;20001;-84
2023/08/03 00:51:02;;;;;;;12.55;7.65;;;;;;;22.30;66.59;98755.56;6108525;23;20045;-86
2023/08/03 00:53:29;;;;;;;8.68;6.70;;;;;;;22.29;66.96;98762.22;6109211;23;20005;-86
2023/08/03 00:55:55;;;;;;;10.57;6.95;;;;;;;22.18;66.97;98758.44;6108510;23;20458;-86
2023/08/03 00:58:20;;;;;;;11.20;6.63;;;;;;;22.11;66.99;98755.56;6108100;23;20004;-85
2023/08/03 01:00:46;;;;;;;9.45;6.20;;;;;;;22.13;67.17;98758.72;6133778;23;20005;-86
2023/08/03 01:03:11;;;;;;;9.23;6.15;;;;;;;22.05;66.98;98755.03;6108660;23;19997;-86
2023/08/03 01:05:37;;;;;;;9.05;6.43;;;;;;;22.09;66.95;98752.38;6107872;23;19997;-86
2023/08/03 01:08:03;;;;;;;9.10;6.60;;;;;;;22.08;66.25;98756.25;6133621;23;20004;-88
2023/08/03 01:10:28;;;;;;;8.90;6.75;;;;;;;22.19;65.64;98762.78;6132453;23;20001;-87
2023/08/03 01:12:55;;;;;;;8.40;6.60;;;;;;;22.24;65.02;98753.47;6108125;23;20505;-87
2023/08/03 01:15:21;;;;;;;7.25;5.97;;;;;;;22.38;64.43;98762.78;6132089;23;20013;-86
2023/08/03 01:17:46;;;;;;;9.20;6.40;;;;;;;22.39;64.28;98756.16;6109514;23;20008;-86
2023/08/03 01:20:12;;;;;;;9.82;6.03;;;;;;;22.49;63.65;98768.47;6108151;23;20058;-86
2023/08/03 01:22:40;;;;;;;6.80;5.63;;;;;;;22.47;62.55;98753.53;6108554;23;20438;-85
2023/08/03 01:25:06;;;;;;;7.82;6.25;;;;;;;22.51;62.47;98762.63;6133238;23;20000;-85
2023/08/03 01:27:32;;;;;;;7.68;5.90;;;;;;;22.54;61.78;98759.16;6132436;23;20024;-86
2023/08/03 01:29:57;;;;;;;8.50;5.90;;;;;;;22.51;61.86;98763.41;6108925;23;19997;-87
2023/08/03 01:32:23;;;;;;;7.93;6.10;;;;;;;22.54;61.50;98770.94;6108576;23;20017;-85
2023/08/03 01:34:48;;;;;;;7.05;6.00;;;;;;;22.53;61.64;98768.53;6108188;23;20333;-85
2023/08/03 01:37:14;;;;;;;8.63;5.68;;;;;;;22.56;61.68;98776.06;6158139;23;19997;-86
2023/08/03 01:39:43;;;;;;;8.07;6.22;;;;;;;22.51;61.73;98770.84;6108429;23;20473;-86
2023/08/03 01:42:09;;;;;;;8.85;6.30;;;;;;;22.52;61.57;98773.25;6132370;23;20382;-85
2023/08/03 01:44:34;;;;;;;7.03;5.70;;;;;;;22.51;61.91;98763.41;6108535;23;20008;-85
2023/08/03 01:47:00;;;;;;;7.75;5.60;;;;;;;22.31;62.51;98751.69;6108952;23;20001;-86
2023/08/03 01:49:30;;;;;;;11.35;6.57;;;;;;;22.10;64.22;98745.72;6108359;23;20008;-85
2023/08/03 01:51:56;;;;;;;9.32;5.93;;;;;;;21.90;64.93;98740.25;6108318;23;20008;-85
2023/08/03 01:54:21;;;;;;;9.90;6.55;;;;;;;21.82;66.24;98744.00;6109004;23;20001;-86
2023/08/03 01:56:46;;;;;;;10.70;6.80;;;;;;;21.76;66.56;98753.66;6108281;23;20335;-86
2023/08/03 01:59:12;;;;;;;9.00;6.03;;;;;;;21.65;67.21;98750.69;6107382;22;20375;-85
2023/08/03 02:01:38;;;;;;;9.95;6.63;;;;;;;21.62;67.50;98753.34;6108168;23;20004;-85
2023/08/03 02:04:03;;;;;;;9.20;5.95;;;;;;;21.63;67.57;98763.94;6108109;23;20008;-85
2023/08/03 02:06:29;;;;;;;8.70;6.60;;;;;;;21.53;67.89;98764.50;6108338;23;19997;-85
2023/08/03 02:08:54;;;;;;;8.23;7.00;;;;;;;21.54;68.29;98772.38;6109458;23;19997;-86
2023/08/03 02:11:20;;;;;;;10.13;7.00;;;;;;;21.46;68.22;98758.84;6107908;23;20007;-86
2023/08/03 02:13:45;;;;;;;7.72;6.50;;;;;;;21.40;68.13;98747.34;6107782;23;20001;-86
2023/08/03 02:16:11;;;;;;;10.82;7.18;;;;;;;21.40;67.86;98759.09;6108241;23;20008;-85
2023/08/03 02:18:37;;;;;;;9.27;7.05;;;;;;;21.40;68.77;98772.78;6108249;23;20003;-85
2023/08/03 02:21:06;;;;;;;9.93;7.18;;;;;;;21.30;68.67;98764.31;6132481;23;20085;-85
2023/08/03 02:23:32;;;;;;;10.27;6.97;;;;;;;21.37;68.29;98778.16;6108213;23;19993;-86
2023/08/03 02:26:03;;;;;;;10.57;6.90;;;;;;;21.31;69.05;98771.38;6107468;23;20095;-86
2023/08/03 02:28:32;;;;;;;10.10;6.78;;;;;;;21.32;68.85;98778.44;6109754;23;20016;-86
2023/08/03 02:30:57;;;;;;;7.78;6.93;;;;;;;21.28;68.35;98767.41;6107702;23;20097;-86
2023/08/03 02:33:23;;;;;;;8.95;6.78;;;;;;;21.24;68.85;98779.44;6108170;23;20439;-86
2023/08/03 02:35:49;;;;;;;9.88;7.43;;;;;;;21.12;68.69;98761.94;6107980;23;20005;-86
2023/08/03 02:38:14;;;;;;;8.23;7.15;;;;;;;21.09;69.20;98770.88;6108506;23;20038;-86
2023/08/03 02:40:40;;;;;;;9.82;7.38;;;;;;;21.07;69.76;98775.91;6156058;23;20009;-86
2023/08/03 02:43:05;;;;;;;10.85;7.25;;;;;;;21.06;69.75;98768.03;6107758;23;20351;-86
2023/08/03 02:45:31;;;;;;;8.55;6.55;;;;;;;21.01;69.52;98762.84;6108087;23;20054;-86
2023/08/03 02:47:56;;;;;;;9.80;6.75;;;;;;;21.01;69.77;98762.84;6109523;23;19998;-86
2023/08/03 02:50:22;;;;;;;8.48;6.95;;;;;;;20.85;69.51;98752.66;6108026;23;20005;-85
2023/08/03 02:52:47;;;;;;;10.23;7.15;;;;;;;20.99;69.89;98774.13;6131569;23;20001;-86
2023/08/03 02:55:13;;;;;;;10.68;7.00;;;;;;;21.03;70.40;98783.22;6108751;23;20455;-86
2023/08/03 02:57:38;;;;;;;7.88;6.70;;;;;;;20.93;70.51;98773.59;6133705;23;20023;-86
2023/08/03 03:00:05;;;;;;;9.20;7.32;;;;;;;20.87;70.09;98766.78;6109098;23;20001;-85
2023/08/03 03:02:31;;;;;;;7.43;6.65;;;;;;;20.88;69.72;98778.56;6132740;23;20022;-87
2023/08/03 03:04:56;;;;;;;12.05;7.25;;;;;;;20.92;70.30;98784.91;6109826;23;20424;-85
2023/08/03 03:07:22;;;;;;;9.65;7.13;;;;;;;20.98;70.14;98794.44;6108911;23;20005;-85
2023/08/03 03:09:47;;;;;;;10.20;7.07;;;;;;;20.86;70.16;98791.78;6133314;23;20001;-85
2023/08/03 03:12:13;;;;;;;11.45;7.10;;;;;;;20.90;70.02;98781.72;6108377;23;20389;-85
2023/08/03 03:14:38;;;;;;;7.88;6.80;;;;;;;20.85;70.45;98779.22;6109171;23;20339;-85
2023/08/03 03:17:04;;;;;;;10.00;7.45;;;;;;;20.87;70.29;98779.69;6109496;23;20424;-85
2023/08/03 03:19:29;;;;;;;8.45;7.10;;;;;;;20.83;70.04;98792.47;6133479;23;19993;-86
2023/08/03 03:21:55;;;;;;;8.98;6.78;;;;;;;20.89;69.98;98780.13;6134098;23;20446;-87
2023/08/03 03:24:20;;;;;;;12.88;7.22;;;;;;;20.96;70.42;98783.06;6109805;23;20062;-88
2023/08/03 03:26:46;;;;;;;8.85;6.90;;;;;;;20.83;70.77;98782.31;6110500;22;20014;-88
2023/08/03 03:29:11;;;;;;;12.52;7.18;;;;;;;20.84;70.71;98788.59;6110188;22;19997;-87
2023/08/03 03:31:37;;;;;;;11.35;7.38;;;;;;;20.70;70.90;98773.38;6110367;23;20005;-87
2023/08/03 03:34:02;;;;;;;9.00;6.90;;;;;;;20.82;70.83;98774.47;6133428;23;20070;-87
2023/08/03 03:36:28;;;;;;;9.82;6.95;;;;;;;20.74;70.90;98784.44;6109175;23;20000;-88
2023/08/03 03:38:53;;;;;;;11.18;7.20;;;;;;;20.66;71.51;98793.59;6134856;23;20005;-89
2023/08/03 03:41:19;;;;;;;11.18;7.38;;;;;;;20.59;71.88;98786.00;6112061;23;20444;-92
2023/08/03 03:43:44;;;;;;;13.23;7.20;;;;;;;20.66;71.61;98805.31;6110200;23;20023;-89
2023/08/03 03:46:10;;;;;;;11.45;7.30;;;;;;;20.63;72.21;98805.22;6109613;23;20040;-89
2023/08/03 03:48:35;;;;;;;18.35;7.43;;;;;;;20.64;71.91;98793.94;6108690;23;20008;-89
2023/08/03 03:51:01;;;;;;;11.27;7.40;;;;;;;20.62;72.04;98787.22;6109146;23;20001;-89
2023/08/03 03:53:27;;;;;;;10.48;7.20;;;;;;;20.57;71.67;98780.06;6134418;23;20043;-89
2023/08/03 03:55:52;;;;;;;11.90;7.28;;;;;;;20.59;71.67;98791.47;6110703;23;20009;-91
2023/08/03 03:58:24;;;;;;;15.45;7.68;;;;;;;20.49;71.83;98781.78;6109949;23;20005;-94
2023/08/03 04:00:49;;;;;;;8.43;6.70;;;;;;;20.59;71.51;98778.59;6110672;23;20005;-93
2023/08/03 04:03:15;;;;;;;13.98;7.65;;;;;;;20.79;70.81;98801.41;6111120;22;19989;-92
2023/08/03 04:06:11;;;;;;;10.32;6.88;;;;;;;20.89;70.34;98823.91;6110872;22;20005;-89
2023/08/03 04:08:37;;;;;;;16.83;13.65;;;;;;;20.90;70.76;98804.41;6159094;23;20032;-89
2023/08/03 04:11:02;;;;;;;10.27;7.03;;;;;;;20.89;70.65;98807.50;6109692;23;20001;-89
2023/08/03 04:13:28;;;;;;;9.95;7.13;;;;;;;20.81;70.35;98792.81;6109514;23;20062;-88
2023/08/03 04:15:53;;;;;;;12.73;7.60;;;;;;;20.90;70.82;98798.16;6110476;23;20001;-89
2023/08/03 04:18:19;;;;;;;8.25;6.82;;;;;;;20.96;70.54;98804.94;6109828;23;20005;-89
2023/08/03 04:20:48;;;;;;;10.02;7.40;;;;;;;20.98;70.88;98799.94;6111517;23;20007;-89
2023/08/03 04:23:13;;;;;;;13.32;7.57;;;;;;;21.08;69.50;98801.31;6110378;23;20050;-92
2023/08/03 04:25:42;;;;;;;12.82;7.32;;;;;;;21.02;69.41;98787.09;6134944;23;20398;-89
2023/08/03 04:28:07;;;;;;;8.10;7.10;;;;;;;21.10;70.09;98801.75;6111624;23;20397;-88
2023/08/03 04:30:33;;;;;;;9.40;7.30;;;;;;;21.11;70.15;98815.09;6134467;23;19993;-88
2023/08/03 04:32:58;;;;;;;9.38;6.85;;;;;;;20.95;69.66;98786.94;6134186;23;20450;-88
2023/08/03 04:35:24;;;;;;;14.15;7.88;;;;;;;21.13;69.58;98814.75;6109340;23;20004;-91
2023/08/03 04:37:49;;;;;;;9.63;6.80;;;;;;;21.33;68.14;98808.22;6110440;23;20001;-90
2023/08/03 04:40:16;;;;;;;9.65;7.30;;;;;;;21.59;67.56;98826.88;6111404;22;20004;-87
2023/08/03 04:42:44;;;;;;;12.63;6.70;;;;;;;21.57;66.41;98807.25;6134821;23;19997;-89
2023/08/03 04:45:10;;;;;;;12.35;7.90;;;;;;;21.98;65.76;98837.16;6133153;23;20001;-90
2023/08/03 04:47:35;;;;;;;12.88;6.93;;;;;;;21.90;65.43;98805.25;6135727;23;20004;-90
2023/08/03 04:50:01;;;;;;;10.38;8.57;;;;;;;21.99;65.43;98820.31;6112758;23;20005;-92
2023/08/03 04:52:26;;;;;;;11.52;6.93;;;;;;;22.15;65.27;98827.72;6111494;22;20005;-93
2023/08/03 04:54:52;;;;;;;9.27;6.90;;;;;;;22.24;63.78;98822.06;6109164;23;20021;-89
2023/08/03 04:57:17;;;;;;;12.27;7.20;;;;;;;22.48;63.27;98838.22;6109620;23;19997;-90
2023/08/03 04:59:43;;;;;;;14.63;6.97;;;;;;;22.53;63.32;98837.94;6109901;23;20053;-90
2023/08/03 05:02:08;;;;;;;9.45;6.88;;;;;;;22.50;63.33;98840.63;6110885;23;20029;-89
2023/08/03 05:04:34;;;;;;;9.70;7.07;;;;;;;22.38;63.97;98831.34;6109454;23;20001;-89
2023/08/03 05:06:59;;;;;;;23.35;12.70;;;;;;;22.38;64.02;98836.06;6110556;22;20001;-90
2023/08/03 05:09:26;;;;;;;10.27;6.53;;;;;;;22.56;63.20;98847.41;6111182;23;20035;-89
2023/08/03 05:11:54;;;;;;;9.38;6.53;;;;;;;22.71;63.10;98848.47;6110549;23;20001;-89
2023/08/03 05:14:19;;;;;;;11.02;6.78;;;;;;;22.55;63.04;98818.38;6111523;23;20005;-90
2023/08/03 05:16:45;;;;;;;17.27;8.65;;;;;;;22.68;62.78;98835.47;6112991;23;20042;-90
2023/08/03 05:19:10;;;;;;;13.55;7.50;;;;;;;22.78;63.02;98837.63;6115484;23;20064;-95
2023/08/03 05:21:38;;;;;;;12.45;6.97;;;;;;;22.91;62.30;98851.97;6116560;23;20020;-92
2023/08/03 05:24:04;;;;;;;9.93;6.57;;;;;;;22.99;61.86;98857.25;6113039;23;20004;-93
2023/08/03 05:27:20;;;;;;;10.82;6.65;;;;;;;22.94;62.13;98843.81;6159039;22;20332;-91
2023/08/03 05:29:45;;;;;;;13.43;7.13;;;;;;;23.14;61.23;98844.59;6263951;22;20082;-94
2023/08/03 05:32:11;;;;;;;11.85;6.88;;;;;;;23.17;60.73;98840.31;6235710;22;19996;-92
2023/08/03 05:34:47;;;;;;;9.88;6.68;;;;;;;23.25;60.21;98844.00;6238913;22;20010;-93
2023/08/03 05:37:15;;;;;;;14.13;6.60;;;;;;;23.46;59.53;98843.56;6261939;22;20341;-92
2023/08/03 05:39:40;;;;;;;9.20;6.18;;;;;;;23.57;58.72;98839.81;6259639;22;19999;-94
2023/08/03 05:42:10;;;;;;;11.57;6.95;;;;;;;23.76;59.16;98849.09;6234456;22;20437;-91
2023/08/03 05:44:41;;;;;;;14.40;6.90;;;;;;;23.90;58.64;98841.09;6237635;22;19999;-89
2023/08/03 05:47:22;;;;;;;10.95;6.40;;;;;;;23.94;59.08;98832.91;6290266;22;20043;-91
2023/08/03 05:49:47;;;;;;;9.10;7.07;;;;;;;24.10;58.30;98841.78;6264304;22;20085;-88
2023/08/03 05:52:13;;;;;;;13.30;6.40;;;;;;;24.09;58.42;98831.16;6242192;22;20006;-88
2023/08/03 05:54:41;;;;;;;11.23;6.60;;;;;;;24.35;57.83;98838.56;6239087;22;20003;-89
2023/08/03 05:57:11;;;;;;;10.68;6.30;;;;;;;24.38;57.19;98821.31;6265153;22;19999;-93
2023/08/03 05:59:36;;;;;;;8.95;6.38;;;;;;;24.47;56.59;98854.06;6242077;22;20010;-91
2023/08/03 06:02:05;;;;;;;9.55;5.97;;;;;;;24.48;56.54;98834.41;6236981;22;20007;-91
2023/08/03 06:04:31;;;;;;;7.82;6.15;;;;;;;24.59;55.70;98840.88;6235688;22;20067;-92
2023/08/03 06:06:56;;;;;;;9.20;6.13;;;;;;;24.81;55.29;98852.91;6236133;22;20465;-90
2023/08/03 06:09:22;;;;;;;7.95;6.10;;;;;;;24.76;55.62;98839.47;6235757;22;20003;-90
2023/08/03 06:11:48;;;;;;;21.52;7.70;;;;;;;24.98;55.24;98834.19;6242911;22;20006;-91
2023/08/03 06:14:20;;;;;;;13.25;9.10;;;;;;;25.04;54.76;98827.16;6235542;22;20335;-89
2023/08/03 06:17:01;;;;;;;11.93;7.00;;;;;;;25.09;54.87;98826.03;6233744;22;20007;-90
2023/08/03 06:19:35;;;;;;;15.10;8.10;;;;;;;25.23;54.29;98831.69;6237438;22;19995;-89
2023/08/03 06:22:04;;;;;;;8.45;6.28;;;;;;;25.52;53.51;98846.50;6285719;22;20452;-89
2023/08/03 06:24:47;;;;;;;16.63;6.60;;;;;;;25.77;54.01;98843.94;6261041;22;20010;-89
2023/08/03 06:27:13;;;;;;;8.35;6.13;;;;;;;25.93;52.39;98829.09;6264937;22;20054;-89
2023/08/03 06:29:46;;;;;;;9.30;7.05;;;;;;;26.05;52.45;98826.00;6232143;22;20018;-88
2023/08/03 06:32:17;;;;;;;8.07;5.80;;;;;;;26.29;52.17;98841.09;6232144;22;19999;-88
2023/08/03 06:34:45;;;;;;;13.85;6.28;;;;;;;26.25;51.48;98825.69;6110444;23;20566;-92
2023/08/03 06:37:31;;;;;;;9.38;6.65;;;;;;;26.36;51.27;98854.16;6109714;23;20016;-94
2023/08/03 06:40:55;;;;;;;10.13;7.57;;;;;;;26.43;51.15;98843.13;6139925;23;20001;-95
2023/08/03 06:43:25;;;;;;;10.07;5.70;;;;;;;26.42;50.72;98827.75;6202029;22;20016;-96
2023/08/03 06:45:53;;;;;;;9.23;5.63;;;;;;;26.72;50.52;98837.75;6119711;23;19997;-94
2023/08/03 06:48:22;;;;;;;9.00;5.60;;;;;;;26.76;49.99;98827.50;6121435;23;20012;-94
2023/08/03 06:50:51;;;;;;;8.88;6.22;;;;;;;26.98;50.51;98826.38;6121877;23;20016;-96
2023/08/03 06:53:18;;;;;;;9.45;7.60;;;;;;;27.12;50.24;98816.50;6120792;23;20005;-96
2023/08/03 06:55:52;;;;;;;8.70;6.80;;;;;;;27.37;49.48;98841.41;6119990;23;20032;-96
2023/08/03 07:01:33;;;;;;;14.50;8.88;;;;;;;27.84;49.41;98850.47;6166772;23;20002;-93
2023/08/03 07:04:02;;;;;;;7.82;5.57;;;;;;;27.78;49.05;98830.72;6114960;23;20057;-96
2023/08/03 07:06:54;;;;;;;11.75;5.75;;;;;;;27.95;48.34;98839.41;6167918;23;20093;-94
2023/08/03 07:09:19;;;;;;;9.10;5.78;;;;;;;28.13;48.86;98831.84;6173726;23;20001;-96
2023/08/03 07:11:54;;;;;;;9.20;5.40;;;;;;;28.42;48.09;98842.84;6117252;22;20016;-95
2023/08/03 07:14:28;;;;;;;8.60;6.03;;;;;;;28.49;47.92;98820.66;6121202;23;20038;-96
2023/08/03 07:17:16;;;;;;;10.63;7.55;;;;;;;28.68;47.54;98822.19;6146793;22;19989;-95
2023/08/03 07:19:43;;;;;;;8.88;6.80;;;;;;;28.83;46.88;98811.00;6179643;22;20061;-96
2023/08/03 07:22:09;;;;;;;10.38;6.35;;;;;;;29.11;46.60;98835.78;6121062;23;20008;-96
2023/08/03 07:24:35;;;;;;;8.80;5.88;;;;;;;29.15;47.43;98830.22;6122052;23;20001;-96
2023/08/03 07:27:05;;;;;;;5.68;5.10;;;;;;;29.13;44.47;98811.19;6120582;22;20025;-95
2023/08/03 07:34:59;;;;;;;;;;;;;;;29.44;43.40;98827.22;6282166;22;20043;-95
2023/08/03 07:37:25;;;;;;;7.03;4.75;;;;;;;29.48;42.65;98811.31;6262578;22;19918;-92
2023/08/03 07:39:51;;;;;;;6.93;5.05;;;;;;;29.55;43.28;98800.16;6212606;22;20004;-94
2023/08/03 07:42:23;;;;;;;9.02;6.88;;;;;;;29.84;42.87;98833.97;6238266;22;19999;-91
2023/08/03 07:44:58;;;;;;;5.40;4.90;;;;;;;29.62;41.62;98800.88;6246232;22;19996;-95
2023/08/03 07:47:27;;;;;;;8.75;5.45;;;;;;;29.80;42.16;98820.16;6243307;22;20067;-94
2023/08/03 07:50:24;;;;;;;4.90;4.43;;;;;;;29.81;41.70;98804.28;6245031;22;20457;-95
2023/08/03 07:53:04;;;;;;;6.93;4.93;;;;;;;30.06;42.24;98822.66;6254956;22;20012;-94
2023/08/03 07:55:46;;;;;;;;;;;;;;;;;;;;;
2023/08/03 08:10:18;;;;;;;11.13;6.45;;;;;;;30.47;41.76;98802.38;6320375;22;20011;-95
2023/08/03 08:12:49;;;;;;;6.47;5.45;;;;;;;30.60;41.56;98806.16;6254692;22;20108;-95
2023/08/03 08:15:18;;;;;;;21.90;7.60;;;;;;;30.80;41.20;98811.84;6291041;22;19999;-96
2023/08/03 08:17:44;;;;;;;12.48;5.82;;;;;;;30.84;41.36;98798.66;6240402;22;20050;-95
2023/08/03 08:20:10;;;;;;;6.40;5.10;;;;;;;30.94;41.40;98806.09;6266152;22;20018;-96
2023/08/03 08:22:42;;;;;;;7.28;5.95;;;;;;;31.12;41.00;98803.03;6262320;22;20026;-89
2023/08/03 08:25:19;;;;;;;9.40;6.55;;;;;;;31.18;40.57;98801.31;6239348;22;19995;-91
2023/08/03 08:27:58;;;;;;;74.78;13.35;;;;;;;31.26;40.46;98795.66;6245840;22;20010;-94
2023/08/03 08:30:25;;;;;;;12.05;6.72;;;;;;;31.45;40.73;98806.09;6298153;22;19999;-93
2023/08/03 08:32:53;;;;;;;10.95;6.10;;;;;;;31.52;40.02;98810.72;6250673;22;20003;-93
2023/08/03 08:35:33;;;;;;;7.40;4.85;;;;;;;31.59;39.48;98799.50;6269131;22;19995;-94
2023/08/03 08:38:26;;;;;;;8.30;5.00;;;;;;;31.80;38.95;98815.78;6271309;22;19999;-93
2023/08/03 08:40:58;;;;;;;16.80;6.55;;;;;;;31.73;39.12;98798.44;6296890;22;20007;-94
2023/08/03 08:43:34;;;;;;;7.20;4.97;;;;;;;32.01;38.56;98809.06;6215577;22;19999;-95
2023/08/03 08:46:28;;;;;;;8.70;5.60;;;;;;;32.09;38.55;98801.34;6241908;22;20025;-96
2023/08/03 08:49:17;;;;;;;8.60;5.75;;;;;;;32.33;37.77;98816.00;6292034;22;20023;-94
2023/08/03 08:52:02;;;;;;;6.10;4.88;;;;;;;32.32;36.79;98796.91;6296580;22;19995;-94
2023/08/03 08:54:50;;;;;;;7.07;4.75;;;;;;;32.49;36.20;98817.25;6268572;22;20062;-91
2023/08/03 08:57:15;;;;;;;8.40;5.43;;;;;;;32.40;36.46;98789.97;6248488;22;20078;-91
2023/08/03 09:00:13;;;;;;;7.90;5.47;;;;;;;32.48;36.54;98796.97;6238200;22;20009;-92
2023/08/03 09:02:38;;;;;;;7.00;5.00;;;;;;;32.48;36.14;98785.00;6237509;22;20059;-92
2023/08/03 09:05:52;;;;;;;9.18;4.53;;;;;;;32.71;36.33;98798.88;6264260;22;20009;-93
2023/08/03 09:08:39;;;;;;;5.78;4.57;;;;;;;32.61;35.73;98783.16;6238879;22;19999;-93
2023/08/03 09:11:05;;;;;;;7.10;4.75;;;;;;;32.50;35.96;98768.66;6199866;23;20028;-90
2023/08/03 09:13:32;;;;;;;5.60;4.90;;;;;;;32.66;35.85;98777.06;6171038;23;20354;-91
2023/08/03 09:19:37;;;;;;;5.78;4.88;;;;;;;32.87;35.87;98767.41;6191521;23;20031;-92
2023/08/03 09:22:07;;;;;;;19.88;17.25;;;;;;;33.06;36.86;98785.31;6163344;23;20033;-90
2023/08/03 09:24:32;;;;;;;6.10;5.07;;;;;;;33.20;35.41;98787.78;6170320;23;20390;-90
2023/08/03 09:26:58;;;;;;;9.80;6.07;;;;;;;33.13;35.89;98770.44;6168795;23;20028;-91
2023/08/03 09:29:33;;;;;;;10.05;7.00;;;;;;;33.30;35.86;98779.56;6168281;23;20048;-91
2023/08/03 09:32:03;;;;;;;5.75;5.18;;;;;;;33.36;35.30;98778.59;6171739;23;20000;-92
2023/08/03 09:34:47;;;;;;;6.05;4.93;;;;;;;33.44;34.21;98795.94;6168794;23;20008;-89
2023/08/03 09:38:06;;;;;;;;;;;;;;;;;;;;;
2023/08/03 09:40:44;;;;;;;7.95;4.95;;;;;;;33.37;34.64;98776.59;6194795;23;20027;-88
2023/08/03 09:43:11;;;;;;;8.00;5.57;;;;;;;33.31;34.97;98762.41;6237103;22;20000;-88
2023/08/03 09:45:38;;;;;;;5.90;5.03;;;;;;;33.45;33.81;98772.38;6235064;22;20006;-93
2023/08/03 09:48:45;;;;;;;5.88;4.28;;;;;;;33.40;34.23;98756.19;6271745;22;20077;-96
2023/08/03 09:51:11;;;;;;;6.68;4.60;;;;;;;33.46;33.74;98770.41;6232811;23;20020;-87
2023/08/03 09:53:37;;;;;;;4.97;4.43;;;;;;;33.58;33.34;98773.25;6171867;22;20416;-88
2023/08/03 09:56:03;;;;;;;9.68;5.57;;;;;;;33.54;34.62;98757.81;6195849;23;20007;-89
2023/08/03 10:01:39;;;;;;;6.87;5.23;;;;;;;33.65;33.59;98751.97;6164078;23;20358;-88
2023/08/03 10:04:05;;;;;;;6.28;5.07;;;;;;;33.71;33.13;98751.00;6221329;23;20003;-86
2023/08/03 10:06:38;;;;;;;6.88;4.70;;;;;;;33.74;31.84;98760.47;6197514;23;20127;-93
2023/08/03 10:09:13;;;;;;;7.75;4.97;;;;;;;33.85;32.46;98763.78;6200347;23;20027;-91
2023/08/03 10:11:48;;;;;;;6.35;4.65;;;;;;;33.90;31.37;98768.81;6202282;23;20096;-95
2023/08/03 10:17:16;;;;;;;10.00;5.05;;;;;;;33.92;32.62;98738.44;6276149;22;20414;-96
2023/08/03 10:22:32;;;;;;;8.77;4.70;;;;;;;34.08;31.66;98732.00;6280320;22;20072;-96
2023/08/03 10:25:30;;;;;;;5.22;4.53;;;;;;;34.35;31.18;98745.59;6175123;23;20040;-96
2023/08/03 10:28:16;;;;;;;9.18;5.22;;;;;;;34.45;31.40;98754.06;6151989;23;20009;-95
2023/08/03 10:35:58;;;;;;;5.80;4.60;;;;;;;34.54;30.26;98723.44;6297648;22;20845;-96
2023/08/03 10:50:36;;;;;;;5.28;4.68;;;;;;;34.96;29.71;98718.50;6316379;22;20019;-95
2023/08/03 10:53:02;;;;;;;6.03;4.63;;;;;;;35.01;29.47;98719.94;6285718;22;20011;-86
2023/08/03 10:55:30;;;;;;;5.75;5.03;;;;;;;35.11;29.53;98721.59;6231830;22;20060;-90
2023/08/03 10:57:57;;;;;;;7.40;4.53;;;;;;;35.12;30.02;98706.38;6263408;22;20087;-93
2023/08/03 11:04:44;;;;;;;6.95;5.05;;;;;;;35.20;28.49;98706.94;6152308;23;20014;-94
2023/08/03 11:10:52;;;;;;;4.97;4.47;;;;;;;35.14;28.66;98703.94;6265476;22;20024;-95
2023/08/03 11:13:18;;;;;;;5.78;5.00;;;;;;;35.20;28.97;98690.16;6216625;22;20008;-95
2023/08/03 11:15:49;;;;;;;5.65;4.88;;;;;;;35.27;28.96;98697.53;6218421;22;20030;-96
2023/08/03 11:18:55;;;;;;;6.13;4.97;;;;;;;35.44;29.59;98712.91;6246572;22;19984;-94
2023/08/03 11:21:37;;;;;;;5.85;4.90;;;;;;;35.27;29.81;98684.31;6239160;22;20030;-95
2023/08/03 11:24:37;;;;;;;7.25;4.50;;;;;;;35.35;29.80;98688.41;6283871;22;20010;-94
2023/08/03 11:43:10;;;;;;;4.68;4.05;;;;;;;35.78;27.67;98678.47;6304167;22;20003;-95
2023/08/03 11:45:39;;;;;;;6.85;4.43;;;;;;;35.59;27.65;98673.94;6245850;22;20046;-96
2023/08/03 11:48:10;;;;;;;6.15;5.55;;;;;;;35.84;27.78;98687.09;6250711;22;20007;-95
2023/08/03 11:51:06;;;;;;;7.85;4.80;;;;;;;35.97;28.17;98684.19;6272937;22;20041;-96
2023/08/03 11:53:37;;;;;;;9.02;5.18;;;;;;;35.79;27.88;98684.84;6272957;22;20035;-95
2023/08/03 11:56:05;;;;;;;7.32;4.30;;;;;;;35.79;27.62;98677.22;6274627;22;20023;-94
2023/08/03 12:01:34;;;;;;;6.68;5.28;;;;;;;36.04;28.15;98686.72;6281481;22;19996;-96
2023/08/03 12:05:01;;;;;;;5.95;4.50;;;;;;;36.02;28.38;98689.19;6275672;22;20017;-96
2023/08/03 12:10:13;;;;;;;5.72;4.60;;;;;;;36.00;28.66;98686.84;6295214;22;20102;-94
2023/08/03 12:12:47;;;;;;;4.88;4.38;;;;;;;36.15;26.93;98680.72;6216086;22;20010;-93
2023/08/03 12:15:13;;;;;;;4.88;4.35;;;;;;;36.19;27.43;98681.34;6243344;22;20011;-93
2023/08/03 12:17:38;;;;;;;7.47;5.70;;;;;;;36.19;28.38;98672.94;6241769;22;20002;-92
2023/08/03 12:20:07;;;;;;;6.72;4.50;;;;;;;36.25;27.48;98673.13;6245341;22;19987;-95
2023/08/03 12:22:34;;;;;;;5.22;4.30;;;;;;;36.20;27.43;98660.50;6244978;22;20009;-96
2023/08/03 12:27:41;;;;;;;5.25;4.63;;;;;;;36.30;27.13;98662.09;6259877;22;20024;-94
2023/08/03 12:30:13;;;;;;;6.22;4.20;;;;;;;36.20;26.60;98660.50;6205332;23;20023;-93
2023/08/03 12:32:39;;;;;;;5.75;4.30;;;;;;;36.21;27.53;98656.44;6208008;23;20004;-95
2023/08/03 12:35:08;;;;;;;5.13;4.38;;;;;;;36.05;26.98;98649.06;6231265;23;20072;-95
2023/08/03 12:37:52;;;;;;;5.03;3.97;;;;;;;36.09;26.53;98634.88;6209369;23;20043;-94
2023/08/03 12:40:30;;;;;;;7.30;6.38;;;;;;;36.15;26.15;98639.47;6213677;23;20000;-95
2023/08/03 12:43:01;;;;;;;5.70;4.43;;;;;;;36.23;26.41;98637.16;6185804;22;20000;-96
2023/08/03 12:45:43;;;;;;;8.90;4.80;;;;;;;36.40;26.03;98637.66;6239524;22;20011;-96
2023/08/03 12:57:39;;;;;;;6.97;4.95;;;;;;;36.44;26.36;98631.91;6346376;22;20079;-90
2023/08/03 13:00:05;;;;;;;4.70;4.20;;;;;;;36.69;26.29;98630.91;6267871;22;20009;-89
2023/08/03 13:02:38;;;;;;;6.45;4.80;;;;;;;36.76;25.56;98639.81;6267593;22;19999;-90
2023/08/03 13:05:04;;;;;;;7.18;4.75;;;;;;;36.87;25.78;98638.59;6268461;22;19999;-89
2023/08/03 13:07:32;;;;;;;7.07;4.47;;;;;;;37.10;25.78;98642.81;6261691;22;20053;-88
2023/08/03 13:09:58;;;;;;;5.85;4.85;;;;;;;37.15;25.84;98631.75;6278820;22;20007;-88
2023/08/03 13:12:24;;;;;;;9.27;5.82;;;;;;;37.19;26.59;98628.81;6265447;22;20005;-88
2023/08/03 13:14:52;;;;;;;7.97;4.90;;;;;;;37.25;26.60;98631.75;6265119;22;20002;-87
2023/08/03 13:17:18;;;;;;;5.35;4.30;;;;;;;37.14;26.22;98623.81;6291488;22;20036;-88
2023/08/03 13:19:43;;;;;;;6.78;4.70;;;;;;;37.23;26.52;98640.63;6264869;22;20007;-89